createdAt,value
2023-02-18T00:01:37.167Z,68.55
2023-02-18T00:09:45.140Z,61.72
2023-02-18T00:17:50.568Z,70.15
2023-02-18T00:26:06.969Z,75.43
2023-02-18T00:34:15.363Z,64.65
2023-02-18T00:42:23.469Z,68.82
2023-02-18T00:50:29.074Z,63.13
2023-02-18T00:58:39.151Z,53.75
2023-02-18T01:06:45.686Z,62.47
2023-02-18T01:14:56.878Z,58.95
2023-02-18T01:23:02.330Z,56.17
2023-02-18T01:31:13.169Z,67.30
2023-02-18T01:39:18.679Z,78.03
2023-02-18T01:47:26.644Z,87.10
2023-02-18T01:55:32.087Z,93.70
2023-02-18T02:03:40.160Z,108.35
2023-02-18T02:12:06.034Z,74.18
2023-02-18T02:20:43.244Z,61.30
2023-02-18T02:29:20.038Z,62.72
2023-02-18T02:37:36.098Z,62.03
2023-02-18T02:45:52.326Z,65.63
2023-02-18T02:54:14.360Z,53.55
2023-02-18T03:02:30.670Z,43.05
2023-02-18T03:10:51.178Z,37.72
2023-02-18T03:19:04.693Z,25.60
2023-02-18T03:27:19.233Z,21.38
2023-02-18T03:35:26.304Z,20.90
2023-02-18T03:43:35.510Z,27.17
2023-02-18T03:51:40.985Z,21.85
2023-02-18T03:59:49.674Z,16.23
2023-02-18T04:07:55.079Z,14.60
2023-02-18T04:16:03.191Z,11.90
2023-02-18T04:24:09.026Z,18.10
2023-02-18T04:32:16.926Z,14.48
2023-02-18T04:40:22.527Z,15.52
2023-02-18T04:48:30.564Z,17.75
2023-02-18T04:56:36.041Z,17.35
2023-02-18T05:04:44.071Z,15.52
2023-02-18T05:12:49.436Z,22.77
2023-02-18T05:20:57.512Z,17.38
2023-02-18T05:29:02.978Z,16.58
2023-02-18T05:37:11.016Z,12.52
2023-02-18T05:45:16.443Z,12.57
2023-02-18T05:53:24.716Z,13.35
2023-02-18T06:01:30.185Z,13.57
2023-02-18T06:09:38.284Z,16.30
2023-02-18T06:17:43.712Z,16.85
2023-02-18T06:25:52.191Z,15.85
2023-02-18T06:33:57.574Z,15.75
2023-02-18T06:42:05.531Z,15.27
2023-02-18T06:50:11.550Z,18.30
2023-02-18T06:58:19.927Z,18.88
2023-02-18T07:06:28.280Z,19.13
2023-02-18T07:14:36.343Z,20.88
2023-02-18T07:22:41.811Z,19.70
2023-02-18T07:30:50.364Z,15.25
2023-02-18T07:38:55.819Z,16.20
2023-02-18T07:47:03.905Z,17.25
2023-02-18T07:55:10.611Z,17.75
2023-02-18T08:03:19.647Z,16.00
2023-02-18T08:11:25.580Z,11.80
2023-02-18T08:19:33.616Z,13.52
2023-02-18T08:27:39.049Z,17.02
2023-02-18T08:35:48.103Z,15.10
2023-02-18T08:43:53.573Z,17.67
2023-02-18T08:52:02.026Z,13.50
2023-02-18T09:00:08.776Z,14.45
2023-02-18T09:08:17.184Z,16.95
2023-02-18T09:16:24.417Z,20.00
2023-02-18T09:24:33.329Z,19.10
2023-02-18T09:32:38.955Z,14.93
2023-02-18T09:40:50.386Z,14.77
2023-02-18T09:48:56.664Z,13.10
2023-02-18T09:57:06.250Z,14.02
2023-02-18T10:05:17.925Z,11.70
2023-02-18T10:13:27.449Z,9.40
2023-02-18T10:21:36.526Z,9.18
2023-02-18T10:29:45.413Z,10.90
2023-02-18T10:38:02.711Z,10.38
2023-02-18T10:46:20.424Z,11.02
2023-02-18T10:54:28.273Z,11.27
2023-02-18T11:02:36.292Z,12.10
2023-02-18T11:10:45.322Z,9.50
2023-02-18T11:18:54.109Z,10.25
2023-02-18T11:26:59.585Z,10.00
2023-02-18T11:35:09.004Z,12.10
2023-02-18T11:43:46.715Z,9.98
2023-02-18T11:52:06.300Z,11.45
2023-02-18T12:01:03.509Z,12.23
2023-02-18T12:09:22.843Z,9.23
2023-02-18T12:17:46.156Z,9.65
2023-02-18T12:34:23.472Z,11.77
2023-02-18T12:42:49.777Z,12.02
2023-02-18T12:51:36.549Z,10.00
2023-02-18T13:00:11.254Z,10.68
2023-02-18T13:08:29.192Z,15.13
2023-02-18T13:16:38.042Z,10.40
2023-02-18T13:24:47.788Z,14.98
2023-02-18T13:33:04.551Z,12.30
2023-02-18T13:41:10.514Z,13.23
2023-02-18T13:49:24.184Z,15.98
2023-02-18T14:05:44.904Z,13.60
2023-02-18T14:13:55.584Z,16.30
2023-02-18T14:22:32.469Z,16.02
2023-02-18T14:30:43.951Z,15.68
2023-02-18T14:39:00.258Z,12.93
2023-02-18T14:47:17.645Z,14.45
2023-02-18T14:55:29.835Z,14.55
2023-02-18T15:03:35.331Z,13.45
2023-02-18T15:11:46.479Z,12.95
2023-02-18T15:19:54.345Z,17.10
2023-02-18T15:28:02.313Z,12.93
2023-02-18T15:36:10.013Z,11.68
2023-02-18T15:44:32.360Z,11.90
2023-02-18T15:52:41.900Z,11.48
2023-02-18T16:00:56.284Z,12.48
2023-02-18T16:09:04.712Z,10.32
2023-02-18T16:17:18.592Z,15.20
2023-02-18T16:25:28.094Z,11.75
2023-02-18T16:33:36.291Z,11.45
2023-02-18T16:41:41.793Z,13.05
2023-02-18T16:49:52.795Z,12.23
2023-02-18T16:57:58.757Z,14.15
2023-02-18T17:06:07.393Z,9.82
2023-02-18T17:14:18.106Z,11.23
2023-02-18T17:22:26.414Z,13.68
2023-02-18T17:30:33.500Z,15.75
2023-02-18T17:38:41.826Z,18.25
2023-02-18T17:46:49.979Z,18.25
2023-02-18T17:54:58.403Z,22.30
2023-02-18T18:03:04.528Z,24.55
2023-02-18T18:11:16.483Z,21.20
2023-02-18T18:19:21.980Z,22.50
2023-02-18T18:27:30.064Z,21.50
2023-02-18T18:35:38.788Z,28.08
2023-02-18T18:43:49.521Z,22.38
2023-02-18T18:51:56.879Z,19.40
2023-02-18T19:00:05.316Z,17.70
2023-02-18T19:08:12.475Z,19.50
2023-02-18T19:16:23.115Z,19.95
2023-02-18T19:24:28.511Z,21.75
2023-02-18T19:32:36.968Z,24.02
2023-02-18T19:40:42.840Z,28.15
2023-02-18T19:48:54.285Z,35.05
2023-02-18T19:56:59.654Z,36.58
2023-02-18T20:05:11.744Z,28.63
2023-02-18T20:13:17.388Z,25.88
2023-02-18T20:21:25.488Z,29.13
2023-02-18T20:29:33.629Z,25.45
2023-02-18T20:37:42.419Z,23.10
2023-02-18T20:45:47.805Z,23.48
2023-02-18T20:53:56.443Z,22.85
2023-02-18T21:02:02.422Z,24.40
2023-02-18T21:10:11.300Z,26.23
2023-02-18T21:18:17.292Z,26.50
2023-02-18T21:26:27.468Z,27.63
2023-02-18T21:34:33.409Z,27.75
2023-02-18T21:51:03.448Z,32.45
2023-02-18T21:59:11.536Z,39.05
2023-02-18T22:07:17.951Z,36.67
2023-02-18T22:15:26.312Z,40.90
2023-02-18T22:23:34.414Z,40.85
2023-02-18T22:31:42.524Z,39.15
2023-02-18T22:39:48.300Z,35.63
2023-02-18T22:47:56.373Z,32.33
2023-02-18T22:56:03.624Z,32.88
2023-02-18T23:04:14.137Z,28.85
2023-02-18T23:12:19.514Z,25.98
2023-02-18T23:20:39.653Z,24.75
2023-02-18T23:28:52.529Z,21.48
2023-02-18T23:37:01.180Z,24.97
2023-02-18T23:45:06.862Z,20.45
2023-02-18T23:53:14.885Z,23.48
